Portada
METAR-TAF:

METAR-TAF

Aeroports :

Aeroport Internacional de Pequín

Pequín, Xina

latitud: 39-56N, longitud: 116-17E, altitud: 55 m

Observació

L'informe es va fer fa 40 minuts, a les 11:30 UTC
Vent calma
Temperatura -2°C
Humitat 63%
Pressió 1033 hPa
Visibilitat: 8000 m

METAR: ZBAA 251130Z 00000MPS 8000 NSC M02/M08 Q1033 NOSIG

Hora: 20:10 (12:10 UTC)

Pronòstic

L'informe es va fer fa 3 hores i 10 minuts, a les 09:00 UTC
Pronòstic vàlid del 25 a les 12 UTC al 26 a les 12 UTC
Vent 6 kt del Nord
Visibilitat: 6000 m

TAF: ZBAA 250900Z 2512/2612 36003MPS 6000 NSC TX05/2607Z TNM08/2521Z

Observacions i pronòstics meteorològics de més de 4000 aeroports (METAR i TAF).

Les estacions disponibles són els punts grocs i vermells al mapa.

Posi el ratolí al punt desitjat per veure el nom de l'estació.

Feu clic per veure les observacions i els pronòstics meteorològics.

Per canviar el mapa: feu clic els botons verds amb una creu de color negre per apropar; al botó verd amb un guió per allunyar la imatge; o en les fletxes verdes per a mapes adjacents.


METAR-TAF: